createdAt,value
2023-02-26T00:01:55.217Z,3.97
2023-02-26T00:04:58.238Z,4.32
2023-02-26T00:08:00.886Z,4.05
2023-02-26T00:11:03.557Z,3.40
2023-02-26T00:14:06.218Z,3.35
2023-02-26T00:17:10.232Z,3.28
2023-02-26T00:20:13.985Z,2.60
2023-02-26T00:23:16.734Z,3.20
2023-02-26T00:26:19.917Z,2.83
2023-02-26T00:29:22.723Z,3.45
2023-02-26T00:32:25.864Z,2.75
2023-02-26T00:35:28.753Z,2.75
2023-02-26T00:38:31.708Z,3.70
2023-02-26T00:41:34.963Z,2.40
2023-02-26T00:44:38.009Z,3.00
2023-02-26T00:47:40.592Z,2.67
2023-02-26T00:50:43.552Z,3.28
2023-02-26T00:53:46.682Z,2.28
2023-02-26T00:56:49.435Z,2.95
2023-02-26T00:59:52.431Z,2.47
2023-02-26T01:02:55.160Z,2.88
2023-02-26T01:05:57.941Z,2.13
2023-02-26T01:09:01.910Z,3.38
2023-02-26T01:12:04.928Z,2.50
2023-02-26T01:15:07.752Z,3.13
2023-02-26T01:18:10.800Z,2.60
2023-02-26T01:21:14.359Z,3.60
2023-02-26T01:24:17.738Z,3.33
2023-02-26T01:27:21.026Z,2.95
2023-02-26T01:30:23.495Z,2.65
2023-02-26T01:33:26.200Z,2.72
2023-02-26T01:36:29.510Z,2.47
2023-02-26T01:39:31.882Z,2.47
2023-02-26T01:42:34.336Z,3.10
2023-02-26T01:45:37.085Z,3.63
2023-02-26T01:48:40.200Z,1.95
2023-02-26T01:51:43.594Z,3.50
2023-02-26T01:54:46.780Z,3.00
2023-02-26T01:57:49.981Z,2.97
2023-02-26T02:00:52.773Z,3.00
2023-02-26T02:03:55.453Z,3.13
2023-02-26T02:06:57.852Z,2.08
2023-02-26T02:10:00.123Z,2.97
2023-02-26T02:13:03.210Z,3.20
2023-02-26T02:16:06.466Z,3.00
2023-02-26T02:19:09.252Z,1.98
2023-02-26T02:22:12.407Z,2.20
2023-02-26T02:25:15.080Z,2.25
2023-02-26T02:28:17.967Z,2.03
2023-02-26T02:31:21.453Z,3.10
2023-02-26T02:34:24.806Z,2.17
2023-02-26T02:37:27.553Z,2.95
2023-02-26T02:40:29.814Z,1.67
2023-02-26T02:43:33.112Z,2.97
2023-02-26T02:46:36.225Z,1.75
2023-02-26T02:49:39.907Z,2.33
2023-02-26T02:52:42.244Z,1.50
2023-02-26T02:55:46.911Z,3.08
2023-02-26T02:58:50.205Z,1.90
2023-02-26T03:01:53.167Z,2.15
2023-02-26T03:04:55.837Z,1.42
2023-02-26T03:07:58.918Z,2.30
2023-02-26T03:11:01.341Z,2.17
2023-02-26T03:14:03.728Z,2.58
2023-02-26T03:17:08.991Z,1.85
2023-02-26T03:20:12.923Z,2.13
2023-02-26T03:23:15.194Z,2.10
2023-02-26T03:26:18.103Z,3.05
2023-02-26T03:29:21.717Z,2.45
2023-02-26T03:32:24.978Z,1.70
2023-02-26T03:35:27.316Z,1.73
2023-02-26T03:38:30.391Z,2.00
2023-02-26T03:41:32.983Z,1.55
2023-02-26T03:44:36.092Z,2.75
2023-02-26T03:47:38.897Z,1.45
2023-02-26T03:50:41.835Z,1.88
2023-02-26T03:54:03.619Z,2.20
2023-02-26T03:57:10.064Z,1.70
2023-02-26T04:00:35.479Z,1.88
2023-02-26T04:03:38.570Z,1.83
2023-02-26T04:06:41.289Z,1.65
2023-02-26T04:09:44.380Z,1.80
2023-02-26T04:12:47.644Z,1.60
2023-02-26T04:15:50.319Z,1.52
2023-02-26T04:18:52.958Z,1.42
2023-02-26T04:21:56.155Z,1.85
2023-02-26T04:24:58.471Z,1.52
2023-02-26T04:28:01.164Z,1.17
2023-02-26T04:31:04.291Z,1.23
2023-02-26T04:34:07.018Z,1.20
2023-02-26T04:37:09.357Z,3.00
2023-02-26T04:40:12.842Z,1.50
2023-02-26T04:43:15.615Z,2.05
2023-02-26T04:46:28.609Z,2.15
2023-02-26T04:49:32.096Z,1.85
2023-02-26T04:52:34.234Z,1.52
2023-02-26T04:55:37.720Z,1.90
2023-02-26T04:58:41.214Z,2.03
2023-02-26T05:01:49.592Z,1.63
2023-02-26T05:04:52.359Z,2.70
2023-02-26T05:07:55.208Z,1.45
2023-02-26T05:10:57.686Z,1.25
2023-02-26T05:13:59.933Z,2.25
2023-02-26T05:17:02.270Z,1.58
2023-02-26T05:20:05.140Z,1.15
2023-02-26T05:23:08.073Z,1.90
2023-02-26T05:26:10.588Z,2.25
2023-02-26T05:29:13.584Z,1.52
2023-02-26T05:32:16.145Z,1.50
2023-02-26T05:35:18.926Z,2.85
2023-02-26T05:38:21.817Z,2.20
2023-02-26T05:41:24.097Z,2.40
2023-02-26T05:44:26.755Z,2.15
2023-02-26T05:47:29.783Z,1.00
2023-02-26T05:50:32.927Z,1.00
2023-02-26T05:53:35.846Z,1.88
2023-02-26T05:56:38.109Z,1.30
2023-02-26T05:59:40.348Z,1.35
2023-02-26T06:02:43.344Z,1.13
2023-02-26T06:05:46.447Z,2.40
2023-02-26T06:08:49.100Z,1.52
2023-02-26T06:11:51.628Z,2.28
2023-02-26T06:14:53.917Z,1.33
2023-02-26T06:17:56.709Z,2.10
2023-02-26T06:21:00.463Z,1.70
2023-02-26T06:24:03.166Z,1.60
2023-02-26T06:27:06.099Z,1.65
2023-02-26T06:30:09.131Z,1.42
2023-02-26T06:33:12.437Z,1.05
2023-02-26T06:36:15.920Z,1.20
2023-02-26T06:39:18.259Z,1.60
2023-02-26T06:42:20.749Z,2.05
2023-02-26T06:45:23.927Z,1.52
2023-02-26T06:48:27.285Z,0.93
2023-02-26T06:51:30.263Z,1.35
2023-02-26T06:54:33.052Z,2.00
2023-02-26T06:57:36.206Z,1.50
2023-02-26T07:00:39.358Z,1.48
2023-02-26T07:03:43.195Z,1.00
2023-02-26T07:06:46.646Z,2.08
2023-02-26T07:09:49.500Z,1.10
2023-02-26T07:12:53.228Z,1.42
2023-02-26T07:15:56.252Z,1.30
2023-02-26T07:18:59.459Z,1.23
2023-02-26T07:22:02.984Z,1.27
2023-02-26T07:25:05.739Z,1.75
2023-02-26T07:28:07.903Z,1.30
2023-02-26T07:31:10.717Z,1.08
2023-02-26T07:34:13.664Z,2.40
2023-02-26T07:37:16.989Z,1.60
2023-02-26T07:40:20.179Z,1.10
2023-02-26T07:43:22.457Z,1.30
2023-02-26T07:46:25.229Z,2.22
2023-02-26T07:49:28.426Z,0.85
2023-02-26T07:52:30.709Z,0.50
2023-02-26T07:55:33.859Z,0.93
2023-02-26T07:58:37.333Z,1.25
2023-02-26T08:01:39.626Z,1.73
2023-02-26T08:04:42.075Z,1.67
2023-02-26T08:07:44.238Z,0.75
2023-02-26T08:10:47.534Z,1.65
2023-02-26T08:13:50.879Z,0.98
2023-02-26T08:16:54.878Z,1.55
2023-02-26T08:19:57.388Z,2.17
2023-02-26T08:23:00.125Z,1.10
2023-02-26T08:26:03.003Z,1.38
2023-02-26T08:29:05.882Z,1.35
2023-02-26T08:32:09.201Z,1.83
2023-02-26T08:35:12.117Z,1.20
2023-02-26T08:38:15.018Z,1.77
2023-02-26T08:41:17.692Z,1.40
2023-02-26T08:44:20.385Z,0.98
2023-02-26T08:47:28.710Z,1.38
2023-02-26T08:53:33.848Z,0.85
2023-02-26T08:56:36.976Z,1.67
2023-02-26T08:59:39.956Z,1.40
2023-02-26T09:02:42.763Z,0.80
2023-02-26T09:05:45.590Z,1.25
2023-02-26T09:08:49.390Z,0.50
2023-02-26T09:11:52.871Z,0.88
2023-02-26T09:14:56.842Z,1.52
2023-02-26T09:17:59.771Z,1.60
2023-02-26T09:21:02.728Z,1.50
2023-02-26T09:24:05.830Z,1.05
2023-02-26T09:27:09.749Z,1.08
2023-02-26T09:30:13.119Z,1.38
2023-02-26T09:33:15.689Z,0.90
2023-02-26T09:36:18.072Z,1.45
2023-02-26T09:39:20.622Z,0.98
2023-02-26T09:42:23.518Z,1.50
2023-02-26T09:45:26.168Z,0.93
2023-02-26T09:48:29.172Z,1.45
2023-02-26T09:51:32.485Z,1.05
2023-02-26T09:54:35.529Z,1.30
2023-02-26T09:57:38.476Z,1.30
2023-02-26T10:00:41.398Z,1.70
2023-02-26T10:03:43.708Z,1.10
2023-02-26T10:06:46.387Z,1.38
2023-02-26T10:09:50.136Z,1.42
2023-02-26T10:12:53.215Z,1.05
2023-02-26T10:15:55.915Z,2.08
2023-02-26T10:18:58.590Z,1.42
2023-02-26T10:22:01.134Z,1.27
2023-02-26T10:25:04.902Z,1.48
2023-02-26T10:28:07.791Z,1.70
2023-02-26T10:31:11.261Z,1.30
2023-02-26T10:34:14.007Z,2.35
2023-02-26T10:37:16.209Z,1.38
2023-02-26T10:40:19.040Z,3.08
2023-02-26T10:43:22.238Z,1.08
2023-02-26T10:46:25.268Z,0.55
2023-02-26T10:49:27.998Z,1.20
2023-02-26T10:52:30.977Z,0.63
2023-02-26T10:55:33.695Z,1.05
2023-02-26T10:58:35.990Z,1.00
2023-02-26T11:01:38.791Z,0.93
2023-02-26T11:04:41.724Z,0.70
2023-02-26T11:07:44.610Z,1.17
2023-02-26T11:10:47.467Z,1.52
2023-02-26T11:13:50.134Z,1.77
2023-02-26T11:16:54.016Z,0.88
2023-02-26T11:19:57.060Z,1.73
2023-02-26T11:22:59.385Z,1.00
2023-02-26T11:26:02.264Z,0.80
2023-02-26T11:29:05.665Z,1.90
2023-02-26T11:32:09.096Z,1.27
2023-02-26T11:35:11.373Z,0.63
2023-02-26T11:38:16.185Z,0.52
2023-02-26T11:41:19.825Z,0.70
2023-02-26T11:44:22.493Z,1.02
2023-02-26T11:47:25.349Z,1.90
2023-02-26T11:50:28.428Z,0.77
2023-02-26T11:53:30.474Z,1.38
2023-02-26T11:56:33.623Z,0.77
2023-02-26T11:59:37.534Z,1.05
2023-02-26T12:02:40.064Z,1.27
2023-02-26T12:05:42.446Z,1.42
2023-02-26T12:08:45.572Z,1.48
2023-02-26T12:11:48.990Z,0.95
2023-02-26T12:14:52.339Z,1.33
2023-02-26T12:17:55.760Z,1.60
2023-02-26T12:20:58.444Z,0.35
2023-02-26T12:24:01.561Z,0.82
2023-02-26T12:27:04.978Z,1.20
2023-02-26T12:30:07.958Z,0.77
2023-02-26T12:33:10.951Z,0.88
2023-02-26T12:36:13.040Z,0.75
2023-02-26T12:39:16.374Z,1.05
2023-02-26T12:42:19.969Z,1.00
2023-02-26T12:45:22.705Z,0.85
2023-02-26T12:48:25.569Z,1.08
2023-02-26T12:51:29.051Z,1.33
2023-02-26T12:54:32.599Z,0.95
2023-02-26T12:57:36.748Z,0.68
2023-02-26T13:00:40.320Z,0.70
2023-02-26T13:03:43.141Z,1.13
2023-02-26T13:06:45.873Z,0.70
2023-02-26T13:09:48.595Z,1.02
2023-02-26T13:12:51.402Z,1.52
2023-02-26T13:15:54.262Z,0.47
2023-02-26T13:18:57.130Z,0.90
2023-02-26T13:22:00.036Z,0.68
2023-02-26T13:25:02.376Z,1.13
2023-02-26T13:28:05.622Z,1.15
2023-02-26T13:31:09.038Z,0.77
2023-02-26T13:34:12.292Z,0.88
2023-02-26T13:37:14.621Z,1.05
2023-02-26T13:40:17.685Z,0.32
2023-02-26T13:43:21.692Z,0.82
2023-02-26T13:46:25.241Z,0.70
2023-02-26T13:49:28.725Z,0.77
2023-02-26T13:52:31.798Z,0.88
2023-02-26T13:55:34.754Z,0.43
2023-02-26T13:58:37.439Z,0.90
2023-02-26T14:01:40.158Z,0.98
2023-02-26T14:04:43.241Z,0.32
2023-02-26T14:07:46.721Z,0.70
2023-02-26T14:10:49.499Z,0.38
2023-02-26T14:13:52.702Z,1.00
2023-02-26T14:16:56.596Z,0.70
2023-02-26T14:19:59.180Z,1.50
2023-02-26T14:23:01.843Z,0.80
2023-02-26T14:26:05.877Z,0.70
2023-02-26T14:29:09.142Z,1.40
2023-02-26T14:32:12.713Z,1.02
2023-02-26T14:35:16.251Z,1.15
2023-02-26T14:38:18.558Z,0.82
2023-02-26T14:41:21.721Z,0.30
2023-02-26T14:44:24.800Z,0.45
2023-02-26T14:47:27.941Z,1.17
2023-02-26T14:50:31.053Z,0.47
2023-02-26T14:53:33.685Z,0.60
2023-02-26T14:56:36.246Z,0.20
2023-02-26T14:59:39.043Z,0.90
2023-02-26T15:02:42.790Z,0.90
2023-02-26T15:05:46.202Z,0.40
2023-02-26T15:08:49.410Z,0.40
2023-02-26T15:11:53.111Z,0.22
2023-02-26T15:14:55.962Z,1.40
2023-02-26T15:17:58.742Z,1.40
2023-02-26T15:21:01.461Z,1.40
2023-02-26T15:24:04.598Z,0.68
2023-02-26T15:27:08.036Z,0.45
2023-02-26T15:30:10.852Z,0.57
2023-02-26T15:33:13.754Z,0.65
2023-02-26T15:36:16.606Z,0.80
2023-02-26T15:39:20.000Z,1.30
2023-02-26T15:42:23.768Z,0.70
2023-02-26T15:45:27.279Z,0.52
2023-02-26T15:48:29.900Z,0.32
2023-02-26T15:51:32.827Z,0.73
2023-02-26T15:54:35.655Z,0.43
2023-02-26T15:57:38.307Z,1.25
2023-02-26T16:00:40.855Z,0.50
2023-02-26T16:03:43.537Z,0.55
2023-02-26T16:06:46.548Z,0.95
2023-02-26T16:09:49.511Z,0.45
2023-02-26T16:12:52.255Z,0.75
2023-02-26T16:15:55.264Z,0.60
2023-02-26T16:18:58.169Z,0.38
2023-02-26T16:22:01.262Z,1.10
2023-02-26T16:25:04.929Z,0.85
2023-02-26T16:28:08.612Z,1.50
2023-02-26T16:31:11.882Z,0.73
2023-02-26T16:34:15.635Z,0.85
2023-02-26T16:37:19.306Z,1.55
2023-02-26T16:40:22.293Z,0.73
2023-02-26T16:43:24.918Z,1.17
2023-02-26T16:46:27.560Z,0.57
2023-02-26T16:49:30.271Z,0.65
2023-02-26T16:52:33.492Z,0.77
2023-02-26T16:55:36.954Z,1.10
2023-02-26T16:58:40.560Z,0.98
2023-02-26T17:01:43.231Z,0.63
2023-02-26T17:04:46.540Z,1.20
2023-02-26T17:07:49.754Z,0.65
2023-02-26T17:10:53.367Z,0.73
2023-02-26T17:13:56.000Z,1.73
2023-02-26T17:16:59.929Z,1.10
2023-02-26T17:20:03.546Z,1.95
2023-02-26T17:23:07.569Z,1.10
2023-02-26T17:26:10.152Z,1.30
2023-02-26T17:29:12.853Z,0.70
2023-02-26T17:32:17.650Z,0.88
2023-02-26T17:35:19.825Z,1.85
2023-02-26T17:38:22.645Z,1.40
2023-02-26T17:41:26.311Z,1.20
2023-02-26T17:44:29.465Z,1.13
2023-02-26T17:47:32.202Z,1.13
2023-02-26T17:50:35.289Z,1.08
2023-02-26T17:53:38.226Z,1.08
2023-02-26T17:56:41.160Z,1.15
2023-02-26T17:59:44.654Z,1.80
2023-02-26T18:02:47.672Z,1.13
2023-02-26T18:05:50.612Z,1.15
2023-02-26T18:08:53.335Z,2.08
2023-02-26T18:11:56.298Z,2.08
2023-02-26T18:14:59.678Z,1.75
2023-02-26T18:18:02.942Z,0.82
2023-02-26T18:21:05.547Z,1.17
2023-02-26T18:24:08.589Z,1.00
2023-02-26T18:27:11.471Z,1.75
2023-02-26T18:30:14.519Z,1.02
2023-02-26T18:33:17.370Z,1.55
2023-02-26T18:36:20.479Z,1.70
2023-02-26T18:39:23.876Z,0.93
2023-02-26T18:42:26.684Z,0.80
2023-02-26T18:45:29.404Z,1.38
2023-02-26T18:48:32.208Z,1.17
2023-02-26T18:51:34.926Z,1.77
2023-02-26T18:54:37.194Z,1.60
2023-02-26T18:57:40.261Z,1.70
2023-02-26T19:00:43.727Z,1.98
2023-02-26T19:03:46.711Z,1.42
2023-02-26T19:06:49.442Z,1.60
2023-02-26T19:09:52.474Z,1.23
2023-02-26T19:12:55.318Z,1.88
2023-02-26T19:15:57.660Z,1.15
2023-02-26T19:19:00.757Z,1.70
2023-02-26T19:22:04.072Z,1.63
2023-02-26T19:25:07.681Z,1.55
2023-02-26T19:28:11.255Z,3.40
2023-02-26T19:31:16.369Z,1.30
2023-02-26T19:34:19.299Z,1.45
2023-02-26T19:37:21.697Z,1.52
2023-02-26T19:40:24.440Z,1.10
2023-02-26T19:43:27.103Z,1.88
2023-02-26T19:46:29.972Z,1.23
2023-02-26T19:49:33.514Z,2.20
2023-02-26T19:52:36.632Z,1.38
2023-02-26T19:55:40.156Z,0.75
2023-02-26T19:58:42.598Z,1.67
2023-02-26T20:01:45.328Z,1.00
2023-02-26T20:04:47.337Z,1.55
2023-02-26T20:07:50.679Z,0.90
2023-02-26T20:10:54.524Z,1.85
2023-02-26T20:13:56.868Z,1.42
2023-02-26T20:16:59.988Z,1.20
2023-02-26T20:20:03.288Z,1.25
2023-02-26T20:23:06.298Z,1.10
2023-02-26T20:26:10.303Z,1.50
2023-02-26T20:29:13.826Z,1.23
2023-02-26T20:32:16.641Z,1.80
2023-02-26T20:35:18.908Z,1.45
2023-02-26T20:38:21.216Z,1.33
2023-02-26T20:41:23.723Z,1.05
2023-02-26T20:44:26.635Z,0.68
2023-02-26T20:47:29.520Z,3.00
2023-02-26T20:50:32.610Z,2.78
2023-02-26T20:53:35.020Z,1.42
2023-02-26T20:56:37.806Z,1.13
2023-02-26T20:59:40.925Z,1.30
2023-02-26T21:02:44.425Z,1.92
2023-02-26T21:05:48.021Z,0.82
2023-02-26T21:08:51.464Z,1.80
2023-02-26T21:11:54.009Z,1.85
2023-02-26T21:14:56.810Z,1.00
2023-02-26T21:17:59.121Z,1.48
2023-02-26T21:21:01.402Z,1.60
2023-02-26T21:24:04.212Z,1.48
2023-02-26T21:27:06.759Z,2.13
2023-02-26T21:30:09.542Z,1.45
2023-02-26T21:33:12.602Z,1.67
2023-02-26T21:36:15.559Z,1.55
2023-02-26T21:39:19.846Z,2.17
2023-02-26T21:42:22.427Z,1.60
2023-02-26T21:45:25.360Z,2.47
2023-02-26T21:48:28.090Z,1.88
2023-02-26T21:51:31.211Z,2.88
2023-02-26T21:54:33.611Z,1.73
2023-02-26T21:57:36.766Z,2.17
2023-02-26T22:00:40.261Z,1.45
2023-02-26T22:03:43.481Z,2.10
2023-02-26T22:06:46.964Z,1.40
2023-02-26T22:09:49.816Z,2.45
2023-02-26T22:12:52.798Z,1.38
2023-02-26T22:15:55.423Z,2.13
2023-02-26T22:18:58.890Z,1.50
2023-02-26T22:22:01.491Z,2.38
2023-02-26T22:25:04.088Z,1.55
2023-02-26T22:28:07.987Z,1.00
2023-02-26T22:31:11.512Z,1.02
2023-02-26T22:34:14.579Z,1.08
2023-02-26T22:37:17.206Z,1.15
2023-02-26T22:40:19.733Z,1.88
2023-02-26T22:43:22.760Z,1.90
2023-02-26T22:46:26.222Z,0.95
2023-02-26T22:49:29.273Z,1.15
2023-02-26T22:52:31.969Z,1.40
2023-02-26T22:55:34.833Z,1.98
2023-02-26T22:58:38.382Z,1.40
2023-02-26T23:01:42.073Z,1.80
2023-02-26T23:04:45.076Z,2.50
2023-02-26T23:07:47.656Z,2.53
2023-02-26T23:10:50.261Z,2.55
2023-02-26T23:13:52.526Z,2.17
2023-02-26T23:16:55.157Z,1.15
2023-02-26T23:19:58.110Z,2.05
2023-02-26T23:23:01.614Z,1.33
2023-02-26T23:26:03.809Z,1.60
2023-02-26T23:29:06.665Z,1.05
2023-02-26T23:32:09.627Z,0.98
2023-02-26T23:35:12.430Z,0.80
2023-02-26T23:38:15.096Z,2.50
2023-02-26T23:41:17.360Z,1.80
2023-02-26T23:44:20.294Z,1.45
2023-02-26T23:47:23.676Z,1.75
2023-02-26T23:50:27.213Z,1.67
2023-02-26T23:53:29.532Z,2.55
2023-02-26T23:56:32.477Z,2.47
2023-02-26T23:59:35.412Z,1.92
